sensor_id;sensor_type;location;lat;lon;timestamp;temperature;humidity
57753;DHT22;43583;53.132;6.574;2023-09-19T00:01:42;14.10;99.90
57753;DHT22;43583;53.132;6.574;2023-09-19T00:04:11;14.00;99.90
57753;DHT22;43583;53.132;6.574;2023-09-19T00:06:38;14.00;99.90
57753;DHT22;43583;53.132;6.574;2023-09-19T00:09:05;13.90;99.90
57753;DHT22;43583;53.132;6.574;2023-09-19T00:11:36;13.90;99.90
57753;DHT22;43583;53.132;6.574;2023-09-19T00:14:01;13.90;99.90
57753;DHT22;43583;53.132;6.574;2023-09-19T00:16:27;13.90;99.90
57753;DHT22;43583;53.132;6.574;2023-09-19T00:18:52;13.80;99.90
57753;DHT22;43583;53.132;6.574;2023-09-19T00:21:18;13.70;99.90
57753;DHT22;43583;53.132;6.574;2023-09-19T00:23:47;13.70;99.90
57753;DHT22;43583;53.132;6.574;2023-09-19T00:26:13;13.70;99.90
57753;DHT22;43583;53.132;6.574;2023-09-19T00:28:39;13.70;99.90
57753;DHT22;43583;53.132;6.574;2023-09-19T00:31:08;13.60;99.90
57753;DHT22;43583;53.132;6.574;2023-09-19T00:33:34;13.60;99.90
57753;DHT22;43583;53.132;6.574;2023-09-19T00:35:59;13.50;99.90
57753;DHT22;43583;53.132;6.574;2023-09-19T00:38:27;13.50;99.90
57753;DHT22;43583;53.132;6.574;2023-09-19T00:40:54;13.50;99.90
57753;DHT22;43583;53.132;6.574;2023-09-19T00:43:20;13.50;99.90
57753;DHT22;43583;53.132;6.574;2023-09-19T00:45:49;13.40;99.90
57753;DHT22;43583;53.132;6.574;2023-09-19T00:48:17;13.40;99.90
57753;DHT22;43583;53.132;6.574;2023-09-19T00:50:46;13.30;99.90
57753;DHT22;43583;53.132;6.574;2023-09-19T00:53:14;13.30;99.90
57753;DHT22;43583;53.132;6.574;2023-09-19T00:55:40;13.30;99.90
57753;DHT22;43583;53.132;6.574;2023-09-19T00:58:08;13.30;99.90
57753;DHT22;43583;53.132;6.574;2023-09-19T01:00:35;13.30;99.90
57753;DHT22;43583;53.132;6.574;2023-09-19T01:03:01;13.20;99.90
57753;DHT22;43583;53.132;6.574;2023-09-19T01:05:27;13.20;99.90
57753;DHT22;43583;53.132;6.574;2023-09-19T01:07:53;13.20;99.90
57753;DHT22;43583;53.132;6.574;2023-09-19T01:10:20;13.30;99.90
57753;DHT22;43583;53.132;6.574;2023-09-19T01:17:57;13.10;99.90
57753;DHT22;43583;53.132;6.574;2023-09-19T01:20:57;13.20;99.90
57753;DHT22;43583;53.132;6.574;2023-09-19T01:26:30;13.00;99.90
57753;DHT22;43583;53.132;6.574;2023-09-19T01:29:37;13.00;99.90
57753;DHT22;43583;53.132;6.574;2023-09-19T01:32:08;13.00;99.90
57753;DHT22;43583;53.132;6.574;2023-09-19T01:34:48;13.00;99.90
57753;DHT22;43583;53.132;6.574;2023-09-19T01:37:15;12.90;99.90
57753;DHT22;43583;53.132;6.574;2023-09-19T01:39:46;12.90;99.90
57753;DHT22;43583;53.132;6.574;2023-09-19T01:42:37;12.90;99.90
57753;DHT22;43583;53.132;6.574;2023-09-19T01:45:33;12.80;99.90
57753;DHT22;43583;53.132;6.574;2023-09-19T01:48:05;12.80;99.90
57753;DHT22;43583;53.132;6.574;2023-09-19T01:50:55;12.70;99.90
57753;DHT22;43583;53.132;6.574;2023-09-19T01:56:05;12.60;99.90
57753;DHT22;43583;53.132;6.574;2023-09-19T01:58:42;12.60;99.90
57753;DHT22;43583;53.132;6.574;2023-09-19T02:01:13;12.50;99.90
57753;DHT22;43583;53.132;6.574;2023-09-19T02:03:41;12.50;99.90
57753;DHT22;43583;53.132;6.574;2023-09-19T02:06:07;12.50;99.90
57753;DHT22;43583;53.132;6.574;2023-09-19T02:08:37;12.40;99.90
57753;DHT22;43583;53.132;6.574;2023-09-19T02:11:02;12.40;99.90
57753;DHT22;43583;53.132;6.574;2023-09-19T02:13:31;12.40;99.90
57753;DHT22;43583;53.132;6.574;2023-09-19T02:15:57;12.40;99.90
57753;DHT22;43583;53.132;6.574;2023-09-19T02:18:23;12.40;99.90
57753;DHT22;43583;53.132;6.574;2023-09-19T02:20:48;12.30;99.90
57753;DHT22;43583;53.132;6.574;2023-09-19T02:23:16;12.30;99.90
57753;DHT22;43583;53.132;6.574;2023-09-19T02:25:42;12.30;99.90
57753;DHT22;43583;53.132;6.574;2023-09-19T02:28:08;12.30;99.90
57753;DHT22;43583;53.132;6.574;2023-09-19T02:30:34;12.20;99.90
57753;DHT22;43583;53.132;6.574;2023-09-19T02:33:01;12.20;99.90
57753;DHT22;43583;53.132;6.574;2023-09-19T02:35:27;12.20;99.90
57753;DHT22;43583;53.132;6.574;2023-09-19T02:37:53;12.20;99.90
57753;DHT22;43583;53.132;6.574;2023-09-19T02:40:19;12.10;99.90
57753;DHT22;43583;53.132;6.574;2023-09-19T02:42:57;12.10;99.90
57753;DHT22;43583;53.132;6.574;2023-09-19T02:45:24;12.10;99.90
57753;DHT22;43583;53.132;6.574;2023-09-19T02:47:53;12.10;99.90
57753;DHT22;43583;53.132;6.574;2023-09-19T02:50:19;12.10;99.90
57753;DHT22;43583;53.132;6.574;2023-09-19T02:52:48;12.10;99.90
57753;DHT22;43583;53.132;6.574;2023-09-19T02:55:18;12.10;99.90
57753;DHT22;43583;53.132;6.574;2023-09-19T02:57:48;12.10;99.90
57753;DHT22;43583;53.132;6.574;2023-09-19T03:00:15;12.10;99.90
57753;DHT22;43583;53.132;6.574;2023-09-19T03:02:41;12.10;99.90
57753;DHT22;43583;53.132;6.574;2023-09-19T03:05:08;12.10;99.90
57753;DHT22;43583;53.132;6.574;2023-09-19T03:07:33;12.20;99.90
57753;DHT22;43583;53.132;6.574;2023-09-19T03:10:00;12.20;99.90
57753;DHT22;43583;53.132;6.574;2023-09-19T03:12:26;12.30;99.90
57753;DHT22;43583;53.132;6.574;2023-09-19T03:14:54;12.30;99.90
57753;DHT22;43583;53.132;6.574;2023-09-19T03:17:20;12.40;99.90
57753;DHT22;43583;53.132;6.574;2023-09-19T03:19:46;12.40;99.90
57753;DHT22;43583;53.132;6.574;2023-09-19T03:22:13;12.40;99.90
57753;DHT22;43583;53.132;6.574;2023-09-19T03:24:42;12.40;99.90
57753;DHT22;43583;53.132;6.574;2023-09-19T03:27:12;12.40;99.90
57753;DHT22;43583;53.132;6.574;2023-09-19T03:29:47;12.40;99.90
57753;DHT22;43583;53.132;6.574;2023-09-19T03:32:19;12.30;99.90
57753;DHT22;43583;53.132;6.574;2023-09-19T03:34:44;12.30;99.90
57753;DHT22;43583;53.132;6.574;2023-09-19T03:37:13;12.30;99.90
57753;DHT22;43583;53.132;6.574;2023-09-19T03:39:42;12.30;99.90
57753;DHT22;43583;53.132;6.574;2023-09-19T03:42:08;12.30;99.90
57753;DHT22;43583;53.132;6.574;2023-09-19T03:44:33;12.30;99.90
57753;DHT22;43583;53.132;6.574;2023-09-19T03:47:06;12.20;99.90
57753;DHT22;43583;53.132;6.574;2023-09-19T03:49:37;12.20;99.90
57753;DHT22;43583;53.132;6.574;2023-09-19T03:52:06;12.20;99.90
57753;DHT22;43583;53.132;6.574;2023-09-19T03:54:31;12.20;99.90
57753;DHT22;43583;53.132;6.574;2023-09-19T03:56:59;12.20;99.90
57753;DHT22;43583;53.132;6.574;2023-09-19T03:59:25;12.20;99.90
57753;DHT22;43583;53.132;6.574;2023-09-19T04:01:54;12.20;99.90
57753;DHT22;43583;53.132;6.574;2023-09-19T04:07:06;12.40;99.90
57753;DHT22;43583;53.132;6.574;2023-09-19T04:09:34;12.50;99.90
57753;DHT22;43583;53.132;6.574;2023-09-19T04:12:00;12.60;99.90
57753;DHT22;43583;53.132;6.574;2023-09-19T04:14:26;12.60;99.90
57753;DHT22;43583;53.132;6.574;2023-09-19T04:16:51;12.70;99.90
57753;DHT22;43583;53.132;6.574;2023-09-19T04:19:19;12.70;99.90
57753;DHT22;43583;53.132;6.574;2023-09-19T04:21:50;12.80;99.90
57753;DHT22;43583;53.132;6.574;2023-09-19T04:24:18;12.90;99.90
57753;DHT22;43583;53.132;6.574;2023-09-19T04:26:45;12.90;99.90
57753;DHT22;43583;53.132;6.574;2023-09-19T04:29:11;12.90;99.90
57753;DHT22;43583;53.132;6.574;2023-09-19T04:31:39;12.90;99.90
57753;DHT22;43583;53.132;6.574;2023-09-19T04:34:09;12.90;99.90
57753;DHT22;43583;53.132;6.574;2023-09-19T04:36:35;12.90;99.90
57753;DHT22;43583;53.132;6.574;2023-09-19T04:39:03;13.00;99.90
57753;DHT22;43583;53.132;6.574;2023-09-19T04:41:32;12.90;99.90
57753;DHT22;43583;53.132;6.574;2023-09-19T04:43:59;12.90;99.90
57753;DHT22;43583;53.132;6.574;2023-09-19T04:46:25;12.90;99.90
57753;DHT22;43583;53.132;6.574;2023-09-19T04:49:04;12.90;99.90
57753;DHT22;43583;53.132;6.574;2023-09-19T04:51:30;12.90;99.90
57753;DHT22;43583;53.132;6.574;2023-09-19T04:54:00;12.90;99.90
57753;DHT22;43583;53.132;6.574;2023-09-19T04:56:26;13.00;99.90
57753;DHT22;43583;53.132;6.574;2023-09-19T04:59:01;12.90;99.90
57753;DHT22;43583;53.132;6.574;2023-09-19T05:01:27;12.90;99.90
57753;DHT22;43583;53.132;6.574;2023-09-19T05:03:52;13.00;99.90
57753;DHT22;43583;53.132;6.574;2023-09-19T05:06:19;13.00;99.90
57753;DHT22;43583;53.132;6.574;2023-09-19T05:08:49;12.90;99.90
57753;DHT22;43583;53.132;6.574;2023-09-19T05:11:24;13.00;99.90
57753;DHT22;43583;53.132;6.574;2023-09-19T05:14:13;13.00;99.90
57753;DHT22;43583;53.132;6.574;2023-09-19T05:24:02;13.00;99.90
57753;DHT22;43583;53.132;6.574;2023-09-19T05:26:45;13.00;99.90
57753;DHT22;43583;53.132;6.574;2023-09-19T05:29:57;13.00;99.90
57753;DHT22;43583;53.132;6.574;2023-09-19T05:32:41;13.10;99.90
57753;DHT22;43583;53.132;6.574;2023-09-19T05:35:23;13.00;99.90
57753;DHT22;43583;53.132;6.574;2023-09-19T05:55:29;13.20;99.90
57753;DHT22;43583;53.132;6.574;2023-09-19T05:58:39;13.20;99.90
57753;DHT22;43583;53.132;6.574;2023-09-19T06:01:08;13.20;99.90
57753;DHT22;43583;53.132;6.574;2023-09-19T06:03:35;13.30;99.90
57753;DHT22;43583;53.132;6.574;2023-09-19T06:06:02;13.30;99.90
57753;DHT22;43583;53.132;6.574;2023-09-19T06:08:29;13.30;99.90
57753;DHT22;43583;53.132;6.574;2023-09-19T06:10:57;13.40;99.90
57753;DHT22;43583;53.132;6.574;2023-09-19T06:13:23;13.40;99.90
57753;DHT22;43583;53.132;6.574;2023-09-19T06:15:52;13.50;99.90
57753;DHT22;43583;53.132;6.574;2023-09-19T06:18:18;13.60;99.90
57753;DHT22;43583;53.132;6.574;2023-09-19T06:20:51;13.60;99.90
57753;DHT22;43583;53.132;6.574;2023-09-19T06:23:17;13.60;99.90
57753;DHT22;43583;53.132;6.574;2023-09-19T06:25:46;13.80;99.90
57753;DHT22;43583;53.132;6.574;2023-09-19T06:28:13;13.90;99.90
57753;DHT22;43583;53.132;6.574;2023-09-19T06:30:40;14.00;99.90
57753;DHT22;43583;53.132;6.574;2023-09-19T06:33:07;14.10;99.90
57753;DHT22;43583;53.132;6.574;2023-09-19T06:35:34;14.20;99.90
57753;DHT22;43583;53.132;6.574;2023-09-19T06:38:03;14.40;99.90
57753;DHT22;43583;53.132;6.574;2023-09-19T06:40:30;14.50;99.90
57753;DHT22;43583;53.132;6.574;2023-09-19T06:42:59;14.60;99.90
57753;DHT22;43583;53.132;6.574;2023-09-19T06:45:28;14.70;99.90
57753;DHT22;43583;53.132;6.574;2023-09-19T06:47:54;14.90;99.90
57753;DHT22;43583;53.132;6.574;2023-09-19T06:50:23;15.20;99.90
57753;DHT22;43583;53.132;6.574;2023-09-19T06:52:53;15.30;99.90
57753;DHT22;43583;53.132;6.574;2023-09-19T06:55:21;15.70;99.90
57753;DHT22;43583;53.132;6.574;2023-09-19T06:57:49;16.30;99.90
57753;DHT22;43583;53.132;6.574;2023-09-19T07:00:16;17.20;99.90
57753;DHT22;43583;53.132;6.574;2023-09-19T07:05:22;19.10;99.90
57753;DHT22;43583;53.132;6.574;2023-09-19T07:07:48;19.50;99.90
57753;DHT22;43583;53.132;6.574;2023-09-19T07:10:14;19.60;99.90
57753;DHT22;43583;53.132;6.574;2023-09-19T07:12:39;19.40;99.90
57753;DHT22;43583;53.132;6.574;2023-09-19T07:15:06;19.10;99.90
57753;DHT22;43583;53.132;6.574;2023-09-19T07:17:32;18.90;99.90
57753;DHT22;43583;53.132;6.574;2023-09-19T07:19:58;18.70;99.90
57753;DHT22;43583;53.132;6.574;2023-09-19T07:22:26;19.00;99.90
57753;DHT22;43583;53.132;6.574;2023-09-19T07:24:52;19.60;99.90
57753;DHT22;43583;53.132;6.574;2023-09-19T07:27:17;20.50;99.90
57753;DHT22;43583;53.132;6.574;2023-09-19T07:29:43;21.30;99.90
57753;DHT22;43583;53.132;6.574;2023-09-19T07:32:10;21.50;99.90
57753;DHT22;43583;53.132;6.574;2023-09-19T07:34:37;21.00;99.90
57753;DHT22;43583;53.132;6.574;2023-09-19T07:37:04;20.80;99.90
57753;DHT22;43583;53.132;6.574;2023-09-19T07:39:30;20.70;99.90
57753;DHT22;43583;53.132;6.574;2023-09-19T07:41:55;20.50;99.90
57753;DHT22;43583;53.132;6.574;2023-09-19T07:44:22;20.40;99.90
57753;DHT22;43583;53.132;6.574;2023-09-19T07:46:48;20.60;99.90
57753;DHT22;43583;53.132;6.574;2023-09-19T07:49:16;20.90;99.90
57753;DHT22;43583;53.132;6.574;2023-09-19T07:51:43;21.50;99.90
57753;DHT22;43583;53.132;6.574;2023-09-19T07:54:12;21.80;99.90
57753;DHT22;43583;53.132;6.574;2023-09-19T07:56:38;22.10;99.90
57753;DHT22;43583;53.132;6.574;2023-09-19T07:59:03;22.50;99.90
57753;DHT22;43583;53.132;6.574;2023-09-19T08:01:29;22.40;99.90
57753;DHT22;43583;53.132;6.574;2023-09-19T08:03:57;22.00;99.90
57753;DHT22;43583;53.132;6.574;2023-09-19T08:06:26;21.90;99.90
57753;DHT22;43583;53.132;6.574;2023-09-19T08:08:55;22.00;99.90
57753;DHT22;43583;53.132;6.574;2023-09-19T08:11:22;21.80;99.90
57753;DHT22;43583;53.132;6.574;2023-09-19T08:13:50;21.30;99.90
57753;DHT22;43583;53.132;6.574;2023-09-19T08:16:16;20.60;99.90
57753;DHT22;43583;53.132;6.574;2023-09-19T08:18:47;20.50;99.90
57753;DHT22;43583;53.132;6.574;2023-09-19T08:21:13;20.80;99.90
57753;DHT22;43583;53.132;6.574;2023-09-19T08:23:40;20.90;99.90
57753;DHT22;43583;53.132;6.574;2023-09-19T08:26:06;21.00;99.90
57753;DHT22;43583;53.132;6.574;2023-09-19T08:28:36;20.90;99.90
57753;DHT22;43583;53.132;6.574;2023-09-19T08:31:03;20.50;99.90
57753;DHT22;43583;53.132;6.574;2023-09-19T08:33:36;20.60;99.90
57753;DHT22;43583;53.132;6.574;2023-09-19T08:36:02;20.90;99.90
57753;DHT22;43583;53.132;6.574;2023-09-19T08:38:31;20.70;99.90
57753;DHT22;43583;53.132;6.574;2023-09-19T08:40:59;20.40;99.90
57753;DHT22;43583;53.132;6.574;2023-09-19T08:43:30;20.10;99.90
57753;DHT22;43583;53.132;6.574;2023-09-19T08:52:19;19.00;99.90
57753;DHT22;43583;53.132;6.574;2023-09-19T08:54:46;19.20;99.90
57753;DHT22;43583;53.132;6.574;2023-09-19T08:57:14;19.20;99.90
57753;DHT22;43583;53.132;6.574;2023-09-19T08:59:50;19.10;99.90
57753;DHT22;43583;53.132;6.574;2023-09-19T09:02:16;18.80;99.90
57753;DHT22;43583;53.132;6.574;2023-09-19T09:04:46;18.60;99.90
57753;DHT22;43583;53.132;6.574;2023-09-19T09:07:13;18.40;99.90
57753;DHT22;43583;53.132;6.574;2023-09-19T09:09:39;18.20;99.90
57753;DHT22;43583;53.132;6.574;2023-09-19T09:12:17;18.20;99.90
57753;DHT22;43583;53.132;6.574;2023-09-19T09:14:49;18.70;99.90
57753;DHT22;43583;53.132;6.574;2023-09-19T09:17:18;19.10;99.90
57753;DHT22;43583;53.132;6.574;2023-09-19T09:23:06;19.30;99.90
57753;DHT22;43583;53.132;6.574;2023-09-19T09:25:57;19.40;99.90
57753;DHT22;43583;53.132;6.574;2023-09-19T09:28:29;19.80;99.90
57753;DHT22;43583;53.132;6.574;2023-09-19T09:31:00;20.20;99.90
57753;DHT22;43583;53.132;6.574;2023-09-19T09:33:28;20.50;99.90
57753;DHT22;43583;53.132;6.574;2023-09-19T09:36:00;20.60;99.90
57753;DHT22;43583;53.132;6.574;2023-09-19T09:38:29;20.80;99.90
57753;DHT22;43583;53.132;6.574;2023-09-19T09:41:01;20.60;99.90
57753;DHT22;43583;53.132;6.574;2023-09-19T09:43:33;20.40;99.90
57753;DHT22;43583;53.132;6.574;2023-09-19T09:51:45;19.80;99.90
57753;DHT22;43583;53.132;6.574;2023-09-19T09:54:15;20.00;99.90
57753;DHT22;43583;53.132;6.574;2023-09-19T09:57:08;19.90;99.90
57753;DHT22;43583;53.132;6.574;2023-09-19T09:59:57;20.00;99.90
57753;DHT22;43583;53.132;6.574;2023-09-19T10:02:38;20.10;99.90
57753;DHT22;43583;53.132;6.574;2023-09-19T10:05:19;20.00;99.90
57753;DHT22;43583;53.132;6.574;2023-09-19T10:07:50;19.90;99.90
57753;DHT22;43583;53.132;6.574;2023-09-19T10:10:37;19.90;99.90
57753;DHT22;43583;53.132;6.574;2023-09-19T10:13:07;20.00;99.90
57753;DHT22;43583;53.132;6.574;2023-09-19T10:15:34;19.90;99.90
57753;DHT22;43583;53.132;6.574;2023-09-19T10:18:07;19.90;99.90
57753;DHT22;43583;53.132;6.574;2023-09-19T10:20:36;19.80;99.90
57753;DHT22;43583;53.132;6.574;2023-09-19T10:23:09;19.60;99.90
57753;DHT22;43583;53.132;6.574;2023-09-19T10:25:39;19.60;99.90
57753;DHT22;43583;53.132;6.574;2023-09-19T10:28:09;19.60;99.90
57753;DHT22;43583;53.132;6.574;2023-09-19T10:30:49;19.70;99.90
57753;DHT22;43583;53.132;6.574;2023-09-19T10:33:21;19.70;99.90
57753;DHT22;43583;53.132;6.574;2023-09-19T10:35:51;19.80;99.90
57753;DHT22;43583;53.132;6.574;2023-09-19T10:38:23;20.00;99.90
57753;DHT22;43583;53.132;6.574;2023-09-19T10:40:50;20.20;99.90
57753;DHT22;43583;53.132;6.574;2023-09-19T10:43:18;20.30;99.90
57753;DHT22;43583;53.132;6.574;2023-09-19T10:45:45;20.40;99.90
57753;DHT22;43583;53.132;6.574;2023-09-19T10:48:17;20.50;99.90
57753;DHT22;43583;53.132;6.574;2023-09-19T10:51:01;20.50;99.90
57753;DHT22;43583;53.132;6.574;2023-09-19T10:53:47;20.50;99.90
57753;DHT22;43583;53.132;6.574;2023-09-19T10:56:31;20.40;99.90
57753;DHT22;43583;53.132;6.574;2023-09-19T10:59:17;20.50;99.90
57753;DHT22;43583;53.132;6.574;2023-09-19T11:01:52;20.30;99.90
57753;DHT22;43583;53.132;6.574;2023-09-19T11:04:32;20.10;99.90
57753;DHT22;43583;53.132;6.574;2023-09-19T11:07:08;20.00;99.90
57753;DHT22;43583;53.132;6.574;2023-09-19T11:09:55;19.90;99.90
57753;DHT22;43583;53.132;6.574;2023-09-19T11:15:07;19.70;99.90
57753;DHT22;43583;53.132;6.574;2023-09-19T11:17:41;19.80;99.90
57753;DHT22;43583;53.132;6.574;2023-09-19T11:30:35;19.10;99.90
57753;DHT22;43583;53.132;6.574;2023-09-19T11:33:27;19.10;99.90
57753;DHT22;43583;53.132;6.574;2023-09-19T11:36:04;19.10;99.90
57753;DHT22;43583;53.132;6.574;2023-09-19T11:46:53;19.00;99.90
57753;DHT22;43583;53.132;6.574;2023-09-19T11:49:40;19.00;99.90
57753;DHT22;43583;53.132;6.574;2023-09-19T11:52:06;19.00;99.90
57753;DHT22;43583;53.132;6.574;2023-09-19T11:54:37;19.20;99.90
57753;DHT22;43583;53.132;6.574;2023-09-19T11:57:11;19.30;99.90
57753;DHT22;43583;53.132;6.574;2023-09-19T11:59:48;19.20;99.90
57753;DHT22;43583;53.132;6.574;2023-09-19T12:02:20;19.20;99.90
57753;DHT22;43583;53.132;6.574;2023-09-19T12:04:57;19.10;99.90
57753;DHT22;43583;53.132;6.574;2023-09-19T12:07:30;18.90;99.90
57753;DHT22;43583;53.132;6.574;2023-09-19T12:10:07;18.80;99.90
57753;DHT22;43583;53.132;6.574;2023-09-19T12:12:38;18.70;99.90
57753;DHT22;43583;53.132;6.574;2023-09-19T12:15:03;18.80;99.90
57753;DHT22;43583;53.132;6.574;2023-09-19T12:17:40;18.80;99.90
57753;DHT22;43583;53.132;6.574;2023-09-19T12:20:08;18.80;99.90
57753;DHT22;43583;53.132;6.574;2023-09-19T12:22:46;18.70;99.90
57753;DHT22;43583;53.132;6.574;2023-09-19T12:25:13;18.70;99.90
57753;DHT22;43583;53.132;6.574;2023-09-19T12:27:49;18.60;99.90
57753;DHT22;43583;53.132;6.574;2023-09-19T12:30:18;18.50;99.90
57753;DHT22;43583;53.132;6.574;2023-09-19T12:32:45;18.40;99.90
57753;DHT22;43583;53.132;6.574;2023-09-19T12:35:33;18.30;99.90
57753;DHT22;43583;53.132;6.574;2023-09-19T12:38:02;18.30;99.90
57753;DHT22;43583;53.132;6.574;2023-09-19T12:40:29;18.30;99.90
57753;DHT22;43583;53.132;6.574;2023-09-19T12:42:59;18.40;99.90
57753;DHT22;43583;53.132;6.574;2023-09-19T12:45:25;18.60;99.90
57753;DHT22;43583;53.132;6.574;2023-09-19T12:48:26;18.80;99.90
57753;DHT22;43583;53.132;6.574;2023-09-19T12:51:07;18.80;99.90
57753;DHT22;43583;53.132;6.574;2023-09-19T12:53:41;18.80;99.90
57753;DHT22;43583;53.132;6.574;2023-09-19T12:56:13;18.80;99.90
57753;DHT22;43583;53.132;6.574;2023-09-19T12:58:58;18.80;99.90
57753;DHT22;43583;53.132;6.574;2023-09-19T13:01:28;18.80;99.90
57753;DHT22;43583;53.132;6.574;2023-09-19T13:04:30;18.70;99.90
57753;DHT22;43583;53.132;6.574;2023-09-19T13:07:00;18.50;99.90
57753;DHT22;43583;53.132;6.574;2023-09-19T13:09:30;18.40;99.90
57753;DHT22;43583;53.132;6.574;2023-09-19T13:12:16;18.20;99.90
57753;DHT22;43583;53.132;6.574;2023-09-19T13:15:11;18.10;99.90
57753;DHT22;43583;53.132;6.574;2023-09-19T13:17:49;18.10;99.90
57753;DHT22;43583;53.132;6.574;2023-09-19T13:20:28;18.20;99.90
57753;DHT22;43583;53.132;6.574;2023-09-19T13:22:55;18.10;99.90
57753;DHT22;43583;53.132;6.574;2023-09-19T13:25:29;18.10;99.90
57753;DHT22;43583;53.132;6.574;2023-09-19T13:27:57;18.00;99.90
57753;DHT22;43583;53.132;6.574;2023-09-19T13:30:26;17.90;99.90
57753;DHT22;43583;53.132;6.574;2023-09-19T13:33:11;18.00;99.90
57753;DHT22;43583;53.132;6.574;2023-09-19T13:35:39;17.90;99.90
57753;DHT22;43583;53.132;6.574;2023-09-19T13:38:07;17.90;99.90
57753;DHT22;43583;53.132;6.574;2023-09-19T13:40:38;17.90;99.90
57753;DHT22;43583;53.132;6.574;2023-09-19T13:43:05;17.80;99.90
57753;DHT22;43583;53.132;6.574;2023-09-19T13:45:32;17.80;99.90
57753;DHT22;43583;53.132;6.574;2023-09-19T13:47:58;17.80;99.90
57753;DHT22;43583;53.132;6.574;2023-09-19T13:50:26;17.80;99.90
57753;DHT22;43583;53.132;6.574;2023-09-19T13:52:54;17.70;99.90
57753;DHT22;43583;53.132;6.574;2023-09-19T13:55:20;17.90;99.90
57753;DHT22;43583;53.132;6.574;2023-09-19T13:57:49;18.00;99.90
57753;DHT22;43583;53.132;6.574;2023-09-19T14:00:16;18.20;99.90
57753;DHT22;43583;53.132;6.574;2023-09-19T14:02:42;18.40;99.90
57753;DHT22;43583;53.132;6.574;2023-09-19T14:05:12;18.70;99.90
57753;DHT22;43583;53.132;6.574;2023-09-19T14:07:41;18.90;99.90
57753;DHT22;43583;53.132;6.574;2023-09-19T14:10:07;18.90;99.90
57753;DHT22;43583;53.132;6.574;2023-09-19T14:12:36;18.80;99.90
57753;DHT22;43583;53.132;6.574;2023-09-19T14:15:04;18.70;99.90
57753;DHT22;43583;53.132;6.574;2023-09-19T14:17:29;18.60;99.90
57753;DHT22;43583;53.132;6.574;2023-09-19T14:19:55;18.50;99.90
57753;DHT22;43583;53.132;6.574;2023-09-19T14:22:21;18.50;99.90
57753;DHT22;43583;53.132;6.574;2023-09-19T14:24:47;18.50;99.90
57753;DHT22;43583;53.132;6.574;2023-09-19T14:27:13;18.50;99.90
57753;DHT22;43583;53.132;6.574;2023-09-19T14:29:38;18.40;99.90
57753;DHT22;43583;53.132;6.574;2023-09-19T14:32:05;18.30;99.90
57753;DHT22;43583;53.132;6.574;2023-09-19T14:34:30;18.30;99.90
57753;DHT22;43583;53.132;6.574;2023-09-19T14:36:57;18.20;99.90
57753;DHT22;43583;53.132;6.574;2023-09-19T14:39:22;18.20;99.90
57753;DHT22;43583;53.132;6.574;2023-09-19T14:41:49;18.20;99.90
57753;DHT22;43583;53.132;6.574;2023-09-19T14:44:14;18.20;99.90
57753;DHT22;43583;53.132;6.574;2023-09-19T14:46:41;18.10;99.90
57753;DHT22;43583;53.132;6.574;2023-09-19T14:49:09;18.10;99.90
57753;DHT22;43583;53.132;6.574;2023-09-19T14:51:36;18.10;99.90
57753;DHT22;43583;53.132;6.574;2023-09-19T14:54:03;18.10;99.90
57753;DHT22;43583;53.132;6.574;2023-09-19T14:56:29;18.10;99.90
57753;DHT22;43583;53.132;6.574;2023-09-19T14:58:56;18.10;99.90
57753;DHT22;43583;53.132;6.574;2023-09-19T15:01:22;18.00;99.90
57753;DHT22;43583;53.132;6.574;2023-09-19T15:03:48;18.00;99.90
57753;DHT22;43583;53.132;6.574;2023-09-19T15:06:15;17.90;99.90
57753;DHT22;43583;53.132;6.574;2023-09-19T15:08:44;17.90;99.90
57753;DHT22;43583;53.132;6.574;2023-09-19T15:11:19;17.90;99.90
57753;DHT22;43583;53.132;6.574;2023-09-19T15:13:46;17.90;99.90
57753;DHT22;43583;53.132;6.574;2023-09-19T15:16:13;17.90;99.90
57753;DHT22;43583;53.132;6.574;2023-09-19T15:18:41;17.90;99.90
57753;DHT22;43583;53.132;6.574;2023-09-19T15:21:08;17.80;99.90
57753;DHT22;43583;53.132;6.574;2023-09-19T15:23:35;17.80;99.90
57753;DHT22;43583;53.132;6.574;2023-09-19T15:26:03;17.80;99.90
57753;DHT22;43583;53.132;6.574;2023-09-19T15:28:28;17.70;99.90
57753;DHT22;43583;53.132;6.574;2023-09-19T15:31:02;17.60;99.90
57753;DHT22;43583;53.132;6.574;2023-09-19T15:33:29;17.60;99.90
57753;DHT22;43583;53.132;6.574;2023-09-19T15:36:09;17.50;99.90
57753;DHT22;43583;53.132;6.574;2023-09-19T15:41:16;17.50;99.90
57753;DHT22;43583;53.132;6.574;2023-09-19T15:43:41;17.40;99.90
57753;DHT22;43583;53.132;6.574;2023-09-19T15:46:07;17.40;99.90
57753;DHT22;43583;53.132;6.574;2023-09-19T15:48:33;17.40;99.90
57753;DHT22;43583;53.132;6.574;2023-09-19T15:51:03;17.40;99.90
57753;DHT22;43583;53.132;6.574;2023-09-19T15:53:50;17.30;99.90
57753;DHT22;43583;53.132;6.574;2023-09-19T15:56:16;17.40;99.90
57753;DHT22;43583;53.132;6.574;2023-09-19T15:58:47;17.40;99.90
57753;DHT22;43583;53.132;6.574;2023-09-19T16:01:13;17.40;99.90
57753;DHT22;43583;53.132;6.574;2023-09-19T16:03:45;17.40;99.90
57753;DHT22;43583;53.132;6.574;2023-09-19T16:06:14;17.30;99.90
57753;DHT22;43583;53.132;6.574;2023-09-19T16:08:45;17.40;99.90
57753;DHT22;43583;53.132;6.574;2023-09-19T16:11:12;17.40;99.90
57753;DHT22;43583;53.132;6.574;2023-09-19T16:13:38;17.40;99.90
57753;DHT22;43583;53.132;6.574;2023-09-19T16:16:04;17.30;99.90
57753;DHT22;43583;53.132;6.574;2023-09-19T16:18:30;17.40;99.90
57753;DHT22;43583;53.132;6.574;2023-09-19T16:21:05;17.40;99.90
57753;DHT22;43583;53.132;6.574;2023-09-19T16:23:33;17.50;99.90
57753;DHT22;43583;53.132;6.574;2023-09-19T16:26:07;17.50;99.90
57753;DHT22;43583;53.132;6.574;2023-09-19T16:28:36;17.50;99.90
57753;DHT22;43583;53.132;6.574;2023-09-19T16:31:06;17.50;99.90
57753;DHT22;43583;53.132;6.574;2023-09-19T16:33:39;17.50;99.90
57753;DHT22;43583;53.132;6.574;2023-09-19T16:36:19;17.40;99.90
57753;DHT22;43583;53.132;6.574;2023-09-19T16:38:46;17.40;99.90
57753;DHT22;43583;53.132;6.574;2023-09-19T16:41:14;17.30;99.90
57753;DHT22;43583;53.132;6.574;2023-09-19T16:43:40;17.20;99.90
57753;DHT22;43583;53.132;6.574;2023-09-19T16:46:08;17.20;99.90
57753;DHT22;43583;53.132;6.574;2023-09-19T16:48:40;17.10;99.90
57753;DHT22;43583;53.132;6.574;2023-09-19T16:51:11;17.00;99.90
57753;DHT22;43583;53.132;6.574;2023-09-19T16:53:37;17.00;99.90
57753;DHT22;43583;53.132;6.574;2023-09-19T16:58:29;16.80;99.90
57753;DHT22;43583;53.132;6.574;2023-09-19T17:00:59;16.80;99.90
57753;DHT22;43583;53.132;6.574;2023-09-19T17:03:24;16.70;99.90
57753;DHT22;43583;53.132;6.574;2023-09-19T17:05:50;16.70;99.90
57753;DHT22;43583;53.132;6.574;2023-09-19T17:08:18;16.70;99.90
57753;DHT22;43583;53.132;6.574;2023-09-19T17:10:43;16.70;99.90
57753;DHT22;43583;53.132;6.574;2023-09-19T17:13:10;16.60;99.90